Stations météo

réclame
Mon MeteoGroup
Buresjoen, Suède (2135): Température de l'air & dewpoint: 17.04.2018 04:00:00 - 23.04.2018 04:00:00 (CEST)Buresjoen, Suède (2135): Vitesse du vent & gusts: 17.04.2018 04:00:00 - 23.04.2018 04:00:00 (CEST)Buresjoen, Suède (2135): Direction du vent: 17.04.2018 04:00:00 - 23.04.2018 04:00:00 (CEST)Buresjoen, Suède (2135): visibility: 17.04.2018 04:00:00 - 23.04.2018 04:00:00 (CEST)Buresjoen, Suède (2135): Quantités de précipitations: 17.04.2018 04:00:00 - 23.04.2018 04:00:00 (CEST)
Date & Time tt [°C] td [°C] ff [km/h] ff [knt] fx [km/h] fx [knt] dd vv [km] rr [mm]
23.04.2018 04:00:00 - - - - - - - - -
23.04.2018 03:00:00 1,1 -1,6 3 1 7 4 NE 50 0,0
23.04.2018 02:00:00 0,9 -2,0 2 1 7 4 E 50 0,0
23.04.2018 01:00:00 1,4 -1,7 2 1 5 3 ENE 50 0,0
23.04.2018 00:00:00 1,9 -2,1 2 1 5 3 SE 50 0,0
22.04.2018 23:00:00 2,9 -2,0 4 2 5 3 ESE 50 0,0
22.04.2018 22:00:00 4,2 -1,8 0 0 4 2 N 50 0,0
22.04.2018 21:00:00 5,7 -1,5 4 2 8 4 NNW 50 0,0
22.04.2018 20:00:00 7,6 -1,9 3 1 9 5 WNW 50 0,0
22.04.2018 19:00:00 8,0 -1,5 6 3 13 7 WNW 50 0,0
22.04.2018 18:00:00 8,5 -1,6 9 5 16 9 WNW 38 0,0
22.04.2018 17:00:00 9,0 -1,7 8 5 17 9 WNW 41 0,0
22.04.2018 16:00:00 8,9 -2,1 8 4 18 10 WNW 36 0,0
22.04.2018 15:00:00 9,7 -0,5 10 6 23 12 W 37 0,0
22.04.2018 14:00:00 8,3 -1,2 9 5 18 10 W 43 0,0
22.04.2018 13:00:00 8,2 -0,8 9 5 20 11 W 40 0,0
22.04.2018 12:00:00 7,5 -0,5 8 4 16 8 WNW 37 0,0
22.04.2018 11:00:00 6,3 0,6 8 4 14 8 W 50 0,0
22.04.2018 10:00:00 4,9 0,7 6 3 13 7 SW 48 0,0
22.04.2018 09:00:00 3,0 0,6 7 4 13 7 SW 49 0,0
22.04.2018 08:00:00 1,7 0,4 5 3 12 6 SSW 50 0,0
22.04.2018 07:00:00 0,8 0,2 0 0 4 2 N 50 0,0
22.04.2018 06:00:00 -0,1 -0,4 3 1 4 2 SSW 45 0,0
22.04.2018 05:00:00 0,0 -0,4 0 0 4 2 N 50 0,0
22.04.2018 04:00:00 -0,1 -0,4 0 0 5 3 N 50 0,0
22.04.2018 03:00:00 0,1 -0,3 3 1 8 5 WNW 27 0,0
22.04.2018 02:00:00 0,3 -0,6 6 3 9 5 NW 26 0,0
22.04.2018 01:00:00 0,3 -0,4 4 2 10 6 N 21 0,0
22.04.2018 00:00:00 0,8 0,2 5 3 10 6 NE 50 0,0
21.04.2018 23:00:00 1,2 0,9 5 3 11 6 NE 50 0,1
21.04.2018 22:00:00 1,5 1,2 4 2 7 4 N 38 0,0
21.04.2018 21:00:00 2,3 1,7 5 3 8 4 W 50 0,0
21.04.2018 20:00:00 3,3 2,3 5 3 11 6 W 50 0,0
21.04.2018 19:00:00 3,2 2,5 4 2 10 6 WNW 18 0,5
21.04.2018 18:00:00 3,3 2,3 0 0 14 8 N 22 0,7
21.04.2018 17:00:00 3,9 1,9 11 6 19 10 W 12 0,2
21.04.2018 16:00:00 5,4 0,9 10 6 21 12 W 34 0,0
21.04.2018 15:00:00 5,6 1,0 10 5 18 10 W 43 0,0
21.04.2018 14:00:00 4,8 1,1 11 6 22 12 W 32 0,0
21.04.2018 13:00:00 4,4 1,3 11 6 22 12 W 26 0,0
21.04.2018 12:00:00 4,3 1,0 11 6 25 14 W 24 0,0
21.04.2018 11:00:00 4,9 0,5 15 8 24 13 WSW 39 0,0
21.04.2018 10:00:00 5,4 0,2 15 8 23 12 W 42 0,0
21.04.2018 09:00:00 4,7 0,6 10 5 16 9 WSW 41 0,0
21.04.2018 08:00:00 3,3 1,3 6 3 9 5 SW 45 0,0
21.04.2018 07:00:00 2,7 0,9 5 3 9 5 WSW 14 0,0
21.04.2018 06:00:00 0,9 -0,4 3 2 13 7 W 44 0,0
21.04.2018 05:00:00 1,2 0,0 4 2 8 4 SE 48 0,0
21.04.2018 04:00:00 1,9 0,4 4 2 12 7 WSW 38 0,1
21.04.2018 03:00:00 0,8 -0,7 4 2 9 5 W 50 0,0
21.04.2018 02:00:00 2,2 -0,1 8 4 11 6 WSW 46 0,1
21.04.2018 01:00:00 1,5 -0,3 6 4 9 5 SW 50 0,0
21.04.2018 00:00:00 2,7 0,1 5 3 11 6 WSW 50 0,0
20.04.2018 23:00:00 3,5 0,4 6 3 8 5 SW 50 0,0
20.04.2018 22:00:00 4,6 0,6 5 3 16 9 SW 50 0,0
20.04.2018 21:00:00 5,4 0,4 11 6 18 10 W 50 0,0
20.04.2018 20:00:00 6,4 0,1 9 5 18 10 W 50 0,0
20.04.2018 19:00:00 7,6 -0,1 11 6 22 12 WSW 50 0,0
20.04.2018 18:00:00 8,6 -0,4 11 6 21 12 WNW 50 0,0
20.04.2018 17:00:00 8,4 -0,4 14 8 29 16 WNW 50 0,0
20.04.2018 16:00:00 7,7 0,2 16 8 30 16 WNW 44 0,0
20.04.2018 15:00:00 8,3 0,5 14 7 37 20 WNW 47 0,0
20.04.2018 14:00:00 8,6 0,8 14 8 35 19 WNW 39 0,0
20.04.2018 13:00:00 8,4 0,8 12 6 22 12 W 42 0,0
20.04.2018 12:00:00 7,7 2,0 9 5 21 12 WNW 50 0,0
20.04.2018 11:00:00 7,8 2,5 10 6 23 12 WNW 49 0,0
20.04.2018 10:00:00 7,3 2,8 14 8 22 12 WNW 42 0,0
20.04.2018 09:00:00 6,6 3,6 10 5 18 10 W 46 0,0
20.04.2018 08:00:00 5,2 3,9 5 3 15 8 WSW 37 0,0
20.04.2018 07:00:00 4,5 3,5 7 4 13 7 WSW 27 0,0
20.04.2018 06:00:00 3,8 3,1 6 4 9 5 SW 25 0,0
20.04.2018 05:00:00 2,5 2,2 5 3 15 8 N 15 0,0
20.04.2018 04:00:00 3,0 2,6 5 3 11 6 WSW 20 0,0
20.04.2018 03:00:00 3,0 2,1 4 2 13 7 WNW 23 0,0
20.04.2018 02:00:00 4,2 3,0 7 4 16 8 SSW 27 0,1
20.04.2018 01:00:00 3,7 2,7 7 4 13 7 SW 16 0,3
20.04.2018 00:00:00 3,2 2,9 4 2 12 6 E 17 0,8
19.04.2018 23:00:00 3,4 2,1 5 3 9 5 SE 8 0,5
19.04.2018 22:00:00 4,0 0,2 0 0 9 5 N 50 0,0
19.04.2018 21:00:00 6,0 0,5 2 1 6 4 S 50 0,0
19.04.2018 20:00:00 7,4 1,0 2 1 4 2 SE 50 0,0
19.04.2018 19:00:00 9,0 1,2 0 0 5 3 N 47 0,0
19.04.2018 18:00:00 9,9 1,0 0 0 12 7 N 46 0,0
19.04.2018 17:00:00 9,4 1,3 7 4 20 11 W 41 0,0
19.04.2018 16:00:00 10,8 1,6 8 5 18 10 W 38 0,0
19.04.2018 15:00:00 10,0 1,4 10 5 22 12 WNW 42 0,0
19.04.2018 14:00:00 9,4 1,3 14 7 23 12 WNW 35 0,0
19.04.2018 13:00:00 9,4 1,1 13 7 22 12 WNW 39 0,0
19.04.2018 12:00:00 9,2 1,1 13 7 23 12 WNW 42 0,0
19.04.2018 11:00:00 8,4 1,5 14 8 25 13 WNW 40 0,0
19.04.2018 10:00:00 7,8 1,8 6 3 16 9 NW 44 0,0
19.04.2018 09:00:00 5,7 1,6 9 5 23 12 WNW 48 0,0
19.04.2018 08:00:00 4,6 1,6 13 7 23 12 WNW 50 0,0
19.04.2018 07:00:00 4,2 1,6 13 7 27 15 WNW 50 0,1
19.04.2018 06:00:00 4,0 1,5 14 8 23 12 WNW 49 0,0
19.04.2018 05:00:00 3,8 1,3 13 7 25 13 WNW 50 0,0
19.04.2018 04:00:00 3,8 1,2 12 6 21 12 W 50 0,0
19.04.2018 03:00:00 3,5 1,1 11 6 17 9 W 50 0,0
19.04.2018 02:00:00 2,7 0,6 9 5 18 10 W 50 0,0
19.04.2018 01:00:00 3,2 0,4 11 6 19 10 W 39 0,0
19.04.2018 00:00:00 3,7 0,2 11 6 23 12 WNW 40 0,0
18.04.2018 23:00:00 4,1 -0,1 11 6 27 15 WNW 50 0,0
18.04.2018 22:00:00 5,1 -0,5 12 7 22 12 WNW 50 0,0
18.04.2018 21:00:00 6,0 -1,2 14 8 23 12 WNW 50 0,0
18.04.2018 20:00:00 6,6 -1,3 6 3 13 7 W 48 0,0
18.04.2018 19:00:00 7,4 -0,8 8 5 16 8 WSW 47 0,0
18.04.2018 18:00:00 7,6 -1,1 9 5 17 9 WSW 46 0,0
18.04.2018 17:00:00 8,4 -2,0 7 4 17 9 WSW 46 0,0
18.04.2018 16:00:00 9,1 -1,6 13 7 23 12 SW 37 0,0
18.04.2018 15:00:00 9,7 -2,6 5 3 13 7 SW 40 0,0
18.04.2018 14:00:00 8,4 -2,9 8 4 15 8 SW 46 0,0
18.04.2018 13:00:00 9,4 -2,9 8 4 18 10 SSW 32 0,0
18.04.2018 12:00:00 9,9 -3,8 8 4 13 7 SSW 31 0,0
18.04.2018 11:00:00 7,3 -3,9 4 2 5 3 N 44 0,0
18.04.2018 10:00:00 5,4 -3,4 0 0 3 2 N 44 0,0
18.04.2018 09:00:00 3,5 -4,0 0 0 4 2 N 45 0,0
18.04.2018 08:00:00 2,8 -4,9 0 0 4 2 N 45 0,0
18.04.2018 07:00:00 -3,6 -6,1 0 0 4 2 N 50 0,0
18.04.2018 06:00:00 -5,8 -6,7 3 2 7 4 ESE 50 0,0
18.04.2018 05:00:00 -5,8 -6,7 4 2 5 3 ESE 50 0,0
18.04.2018 04:00:00 -4,9 -6,2 4 2 7 4 ESE 50 0,0
18.04.2018 03:00:00 -3,3 -5,0 4 2 8 4 E 50 0,0
18.04.2018 02:00:00 -3,7 -5,9 5 3 8 4 ESE 50 0,0
18.04.2018 01:00:00 -2,5 -4,8 3 2 6 3 SE 50 0,0
18.04.2018 00:00:00 -0,4 -4,6 4 2 7 4 ESE 50 0,0
17.04.2018 23:00:00 -0,2 -4,5 6 3 10 5 ESE 50 0,0
17.04.2018 22:00:00 2,2 -4,1 4 2 6 3 ESE 50 0,0
17.04.2018 21:00:00 6,1 -4,1 4 2 5 3 ESE 50 0,0
17.04.2018 20:00:00 10,2 -4,2 0 0 2 1 N 50 0,0
17.04.2018 19:00:00 11,5 -4,2 0 0 6 3 N 39 0,0
17.04.2018 18:00:00 11,6 -3,7 3 1 9 5 ENE 49 0,0
17.04.2018 17:00:00 11,5 -4,2 4 2 8 4 ENE 47 0,0
17.04.2018 16:00:00 11,5 -4,6 3 2 11 6 NNW 40 0,0
17.04.2018 15:00:00 10,6 -4,6 6 3 16 8 NE 43 0,0
17.04.2018 14:00:00 10,3 -4,5 9 5 19 10 ENE 43 0,0
17.04.2018 13:00:00 9,6 -4,7 5 3 12 7 N 40 0,0
17.04.2018 12:00:00 9,1 -4,5 4 2 14 8 N 49 0,0
17.04.2018 11:00:00 8,2 -5,3 5 3 13 7 ENE 41 0,0
17.04.2018 10:00:00 6,6 -4,8 6 3 12 6 NNE 47 0,0
17.04.2018 09:00:00 6,0 -5,3 3 2 7 4 NNE 37 0,0
17.04.2018 08:00:00 3,8 -5,2 3 2 6 4 W 43 0,0
17.04.2018 07:00:00 -0,4 -5,6 3 1 5 3 WNW 50 0,0
17.04.2018 06:00:00 -4,1 -6,4 3 1 4 2 SW 47 0,0
17.04.2018 05:00:00 -5,1 -6,8 3 1 5 3 SSE 50 0,0
17.04.2018 04:00:00 -6,0 -7,4 0 0 9 5 N 50 0,0

tt = Température de l'air
td = dewpoint
ff = Vitesse du vent
fx = gusts
dd = Direction du vent
vv = visibility
rr = Quantités de précipitations

stations d'obs. à proximité